Time;durP1;ratioP1;P1;durP2;ratioP2;P2;SDS_P1;SDS_P2;PMS_P1;PMS_P2;Temp;Humidity;BMP_temperature;BMP_pressure;BME280_temperature;BME280_humidity;BME280_pressure;Samples;Min_cycle;Max_cycle;Signal;HPM_P1;HPM_P2
2022/05/30 00:02:23;;;;;;;1.20;0.80;;;;;;;;;;5014671;28;20022;-76
2022/05/30 00:04:49;;;;;;;1.77;1.10;;;;;;;;;;5014644;28;20259;-76
2022/05/30 00:07:14;;;;;;;2.72;0.90;;;;;;;;;;4996841;28;20255;-77
2022/05/30 00:09:39;;;;;;;1.93;1.10;;;;;;;;;;5014676;28;20076;-76
2022/05/30 00:12:05;;;;;;;2.20;1.30;;;;;;;;;;4996850;28;20244;-77
2022/05/30 00:14:30;;;;;;;3.38;1.00;;;;;;;;;;5015036;28;20259;-77
2022/05/30 00:16:56;;;;;;;2.63;1.10;;;;;;;;;;5014494;28;20030;-77
2022/05/30 00:19:22;;;;;;;2.03;0.93;;;;;;;;;;5013594;28;20022;-77
2022/05/30 00:21:47;;;;;;;1.73;1.02;;;;;;;;;;5014740;28;20032;-77
2022/05/30 00:24:12;;;;;;;2.08;1.10;;;;;;;;;;5014421;28;20033;-77
2022/05/30 00:26:37;;;;;;;3.03;1.00;;;;;;;;;;5014448;28;20084;-77
2022/05/30 00:29:06;;;;;;;2.00;1.10;;;;;;;;;;5014270;28;20064;-77
2022/05/30 00:31:33;;;;;;;2.17;1.10;;;;;;;;;;4996447;28;20026;-77
2022/05/30 00:33:58;;;;;;;1.27;0.95;;;;;;;;;;5014500;28;20021;-77
2022/05/30 00:36:24;;;;;;;2.65;1.10;;;;;;;;;;5014329;28;20120;-76
2022/05/30 00:38:49;;;;;;;1.33;1.00;;;;;;;;;;5014076;28;20018;-75
2022/05/30 00:41:18;;;;;;;1.75;1.00;;;;;;;;;;5014043;28;20270;-77
2022/05/30 00:43:47;;;;;;;1.50;0.90;;;;;;;;;;5014239;28;20029;-77
2022/05/30 00:46:15;;;;;;;1.60;1.00;;;;;;;;;;4996294;28;20030;-77
2022/05/30 00:48:56;;;;;;;1.45;1.20;;;;;;;;;;4996309;28;20026;-77
2022/05/30 00:51:28;;;;;;;2.65;1.20;;;;;;;;;;5013870;28;20034;-77
2022/05/30 00:53:56;;;;;;;1.73;1.17;;;;;;;;;;4996237;28;20022;-77
2022/05/30 00:56:24;;;;;;;1.30;1.13;;;;;;;;;;5013813;28;20029;-77
2022/05/30 00:58:50;;;;;;;1.27;1.05;;;;;;;;;;4996098;28;20018;-77
2022/05/30 01:01:18;;;;;;;1.65;1.00;;;;;;;;;;4995994;28;20483;-76
2022/05/30 01:06:35;;;;;;;2.20;1.05;;;;;;;;;;5014246;28;20113;-76
2022/05/30 01:09:28;;;;;;;1.67;1.10;;;;;;;;;;4995902;28;20061;-76
2022/05/30 01:12:07;;;;;;;2.15;1.10;;;;;;;;;;5003258;28;20462;-76
2022/05/30 01:14:38;;;;;;;5.72;1.10;;;;;;;;;;5013432;28;20038;-76
2022/05/30 01:17:08;;;;;;;2.25;1.10;;;;;;;;;;4996027;28;20053;-77
2022/05/30 01:19:49;;;;;;;0.93;0.90;;;;;;;;;;5013523;28;20025;-76
2022/05/30 01:22:29;;;;;;;3.13;1.10;;;;;;;;;;5013460;28;20032;-77
2022/05/30 01:25:06;;;;;;;2.17;1.08;;;;;;;;;;5013477;28;20033;-76
2022/05/30 01:27:49;;;;;;;2.17;1.15;;;;;;;;;;4995747;28;20022;-76
2022/05/30 01:30:16;;;;;;;1.67;1.08;;;;;;;;;;5013370;28;20165;-76
2022/05/30 01:32:42;;;;;;;2.00;1.20;;;;;;;;;;5013224;28;20056;-76
2022/05/30 01:35:08;;;;;;;1.80;1.23;;;;;;;;;;4995746;28;20116;-76
2022/05/30 01:37:33;;;;;;;1.63;1.20;;;;;;;;;;5013283;28;20391;-77
2022/05/30 01:39:58;;;;;;;1.63;1.30;;;;;;;;;;5013313;28;20024;-76
2022/05/30 01:42:23;;;;;;;2.97;1.33;;;;;;;;;;5013198;28;20096;-76
2022/05/30 01:44:49;;;;;;;1.92;1.50;;;;;;;;;;5013193;28;20263;-77
2022/05/30 01:47:14;;;;;;;1.65;1.27;;;;;;;;;;4995570;28;20033;-75
2022/05/30 01:49:39;;;;;;;2.87;1.53;;;;;;;;;;4995636;28;20062;-75
2022/05/30 01:52:06;;;;;;;2.08;1.20;;;;;;;;;;5013062;28;20271;-77
2022/05/30 01:54:31;;;;;;;3.25;1.58;;;;;;;;;;5013214;28;20064;-77
2022/05/30 01:56:56;;;;;;;3.25;1.50;;;;;;;;;;5013067;28;20057;-77
2022/05/30 01:59:21;;;;;;;2.47;1.50;;;;;;;;;;4995552;28;20025;-76
2022/05/30 02:01:47;;;;;;;4.17;1.67;;;;;;;;;;5013074;28;20458;-77
2022/05/30 02:04:13;;;;;;;2.23;1.60;;;;;;;;;;5013610;28;20673;-76
2022/05/30 02:06:38;;;;;;;8.38;1.50;;;;;;;;;;5013090;28;20321;-77
2022/05/30 02:09:04;;;;;;;5.20;1.40;;;;;;;;;;5012826;28;20022;-76
2022/05/30 02:11:30;;;;;;;3.72;1.80;;;;;;;;;;5013020;28;20266;-77
2022/05/30 02:13:55;;;;;;;2.30;1.98;;;;;;;;;;4995295;28;20540;-76
2022/05/30 02:19:05;;;;;;;4.07;1.80;;;;;;;;;;5013229;28;20397;-76
2022/05/30 02:21:32;;;;;;;2.60;1.90;;;;;;;;;;5012818;28;20399;-76
2022/05/30 02:23:58;;;;;;;4.40;1.65;;;;;;;;;;5013076;28;20531;-76
2022/05/30 02:26:24;;;;;;;3.35;1.85;;;;;;;;;;4995242;28;20136;-76
2022/05/30 02:28:49;;;;;;;2.42;1.75;;;;;;;;;;5012819;28;20045;-76
2022/05/30 02:31:15;;;;;;;3.00;1.90;;;;;;;;;;5013031;28;20467;-77
2022/05/30 02:36:39;;;;;;;2.38;1.63;;;;;;;;;;5012776;28;20033;-76
2022/05/30 02:39:14;;;;;;;2.63;2.00;;;;;;;;;;5012688;28;20022;-77
2022/05/30 02:41:40;;;;;;;3.55;1.67;;;;;;;;;;5013850;28;20036;-76
2022/05/30 02:44:06;;;;;;;2.47;1.60;;;;;;;;;;5016254;28;20025;-76
2022/05/30 02:46:31;;;;;;;4.75;1.70;;;;;;;;;;5016213;28;20026;-76
2022/05/30 02:48:56;;;;;;;3.08;1.90;;;;;;;;;;4998587;28;20487;-76
2022/05/30 02:51:22;;;;;;;2.90;1.67;;;;;;;;;;5016034;28;20021;-77
2022/05/30 02:53:47;;;;;;;3.00;1.83;;;;;;;;;;4998418;28;20346;-76
2022/05/30 02:56:14;;;;;;;2.42;1.80;;;;;;;;;;5015917;28;20030;-76
2022/05/30 02:58:39;;;;;;;2.15;1.70;;;;;;;;;;5016414;28;20424;-76
2022/05/30 03:01:04;;;;;;;3.73;1.70;;;;;;;;;;5015904;28;20026;-76
2022/05/30 03:03:30;;;;;;;4.43;2.00;;;;;;;;;;4998240;28;20252;-77
2022/05/30 03:05:58;;;;;;;3.35;1.90;;;;;;;;;;5016105;28;20030;-77
2022/05/30 03:08:24;;;;;;;3.90;1.80;;;;;;;;;;5015938;28;20025;-77
2022/05/30 03:10:49;;;;;;;4.90;2.05;;;;;;;;;;5015913;28;20021;-77
2022/05/30 03:13:14;;;;;;;2.60;1.90;;;;;;;;;;4998059;28;20022;-77
2022/05/30 03:15:40;;;;;;;3.00;1.98;;;;;;;;;;5015885;28;20026;-77
2022/05/30 03:18:06;;;;;;;2.53;1.98;;;;;;;;;;4998011;28;20025;-77
2022/05/30 03:20:32;;;;;;;2.25;1.90;;;;;;;;;;5015620;28;20108;-76
2022/05/30 03:22:57;;;;;;;3.20;2.00;;;;;;;;;;5015408;28;20033;-77
2022/05/30 03:25:23;;;;;;;5.03;2.10;;;;;;;;;;5015360;28;20589;-76
2022/05/30 03:27:50;;;;;;;4.35;2.30;;;;;;;;;;5015551;28;20030;-76
2022/05/30 03:30:16;;;;;;;3.25;2.10;;;;;;;;;;5015540;28;20076;-76
2022/05/30 03:32:43;;;;;;;1.90;1.73;;;;;;;;;;5015514;28;20038;-76
2022/05/30 03:35:08;;;;;;;3.55;2.10;;;;;;;;;;5015337;28;20494;-76
2022/05/30 03:37:36;;;;;;;3.63;2.00;;;;;;;;;;4997838;28;20033;-76
2022/05/30 03:40:03;;;;;;;4.22;2.20;;;;;;;;;;5015414;28;20097;-77
2022/05/30 03:42:28;;;;;;;4.10;1.95;;;;;;;;;;5015100;28;20113;-77
2022/05/30 03:44:53;;;;;;;3.23;2.07;;;;;;;;;;5015081;28;20458;-78
2022/05/30 03:47:19;;;;;;;3.67;2.05;;;;;;;;;;4997583;28;20686;-77
2022/05/30 03:49:44;;;;;;;3.88;1.95;;;;;;;;;;5015247;28;20087;-76
2022/05/30 03:52:10;;;;;;;5.63;2.10;;;;;;;;;;5014746;28;20398;-76
2022/05/30 03:54:36;;;;;;;3.00;2.15;;;;;;;;;;4997402;28;20755;-76
2022/05/30 03:57:01;;;;;;;4.25;2.22;;;;;;;;;;5014968;28;20475;-77
2022/05/30 03:59:26;;;;;;;4.33;2.23;;;;;;;;;;5015365;28;20029;-77
2022/05/30 04:01:52;;;;;;;2.63;2.10;;;;;;;;;;5015073;28;20251;-77
2022/05/30 04:04:17;;;;;;;2.63;2.17;;;;;;;;;;5015232;28;20033;-76
2022/05/30 04:06:42;;;;;;;3.05;2.05;;;;;;;;;;4997167;28;20049;-77
2022/05/30 04:09:08;;;;;;;3.22;1.95;;;;;;;;;;5014653;28;20022;-77
2022/05/30 04:11:34;;;;;;;2.75;2.40;;;;;;;;;;5014536;28;20042;-77
2022/05/30 04:14:00;;;;;;;3.15;2.10;;;;;;;;;;5015281;28;20382;-76
2022/05/30 04:16:25;;;;;;;2.97;2.03;;;;;;;;;;5014888;28;20029;-77
2022/05/30 04:18:50;;;;;;;4.63;2.40;;;;;;;;;;5014873;28;20486;-76
2022/05/30 04:21:16;;;;;;;3.00;2.22;;;;;;;;;;5014266;28;20798;-77
2022/05/30 04:23:43;;;;;;;4.05;2.05;;;;;;;;;;5015261;28;20022;-76
2022/05/30 04:26:13;;;;;;;3.75;2.40;;;;;;;;;;5014517;28;20029;-77
2022/05/30 04:28:39;;;;;;;2.78;2.10;;;;;;;;;;4996659;28;20036;-77
2022/05/30 04:31:10;;;;;;;3.72;2.47;;;;;;;;;;5014097;28;20117;-77
2022/05/30 04:33:36;;;;;;;5.93;2.25;;;;;;;;;;4996723;28;20080;-77
2022/05/30 04:36:03;;;;;;;2.22;1.90;;;;;;;;;;5014211;28;20447;-78
2022/05/30 04:38:31;;;;;;;2.90;2.33;;;;;;;;;;4996532;28;20068;-76
2022/05/30 04:40:56;;;;;;;2.88;2.30;;;;;;;;;;5014052;28;20026;-77
2022/05/30 04:43:21;;;;;;;3.93;2.20;;;;;;;;;;5014256;28;20055;-77
2022/05/30 04:45:47;;;;;;;3.13;2.30;;;;;;;;;;5014207;28;20251;-77
2022/05/30 04:48:12;;;;;;;2.97;2.13;;;;;;;;;;4996383;28;20029;-78
2022/05/30 04:50:37;;;;;;;4.03;2.33;;;;;;;;;;5013961;28;20029;-77
2022/05/30 04:53:03;;;;;;;3.13;2.47;;;;;;;;;;5014379;28;20614;-77
2022/05/30 04:55:28;;;;;;;5.40;2.40;;;;;;;;;;5013889;28;20738;-76
2022/05/30 04:57:53;;;;;;;2.20;2.00;;;;;;;;;;5013984;28;20106;-76
2022/05/30 05:00:24;;;;;;;4.45;2.30;;;;;;;;;;5013740;28;20345;-77
2022/05/30 05:02:51;;;;;;;2.85;2.33;;;;;;;;;;5014257;28;20029;-77
2022/05/30 05:05:16;;;;;;;2.72;2.03;;;;;;;;;;5013926;28;20509;-78
2022/05/30 05:07:48;;;;;;;5.97;2.17;;;;;;;;;;5013562;28;20069;-76
2022/05/30 05:10:41;;;;;;;3.15;2.10;;;;;;;;;;5014249;28;20026;-77
2022/05/30 05:13:07;;;;;;;4.00;2.30;;;;;;;;;;4996514;28;20057;-79
2022/05/30 05:15:32;;;;;;;6.30;2.05;;;;;;;;;;5013848;28;20060;-78
2022/05/30 05:17:57;;;;;;;5.33;2.33;;;;;;;;;;5014193;28;20025;-77
2022/05/30 05:20:23;;;;;;;3.50;2.13;;;;;;;;;;5013901;28;20321;-78
2022/05/30 05:22:49;;;;;;;3.55;2.38;;;;;;;;;;5013912;28;20746;-77
2022/05/30 05:25:14;;;;;;;3.70;2.30;;;;;;;;;;4996112;28;20033;-77
2022/05/30 05:27:39;;;;;;;6.70;2.10;;;;;;;;;;5013817;28;20083;-77
2022/05/30 05:30:06;;;;;;;3.57;2.37;;;;;;;;;;5013641;28;20109;-77
2022/05/30 05:32:32;;;;;;;3.20;2.28;;;;;;;;;;5013371;28;20305;-77
2022/05/30 05:34:57;;;;;;;2.77;2.10;;;;;;;;;;5013870;28;20378;-78
2022/05/30 05:37:22;;;;;;;2.70;1.83;;;;;;;;;;5014018;28;20593;-78
2022/05/30 05:39:49;;;;;;;2.67;2.03;;;;;;;;;;5013687;28;20030;-77
2022/05/30 05:42:14;;;;;;;3.10;1.95;;;;;;;;;;5013822;28;20251;-77
2022/05/30 05:44:40;;;;;;;3.17;2.22;;;;;;;;;;5013244;28;20099;-77
2022/05/30 05:47:06;;;;;;;3.75;2.22;;;;;;;;;;5013259;28;20471;-77
2022/05/30 05:49:31;;;;;;;2.72;2.20;;;;;;;;;;5013692;28;20033;-77
2022/05/30 05:51:56;;;;;;;5.13;2.40;;;;;;;;;;5013408;28;20490;-78
2022/05/30 05:54:23;;;;;;;4.55;2.40;;;;;;;;;;5012940;28;20052;-77
2022/05/30 05:56:49;;;;;;;3.05;2.20;;;;;;;;;;5013092;28;20483;-77
2022/05/30 05:59:17;;;;;;;6.30;3.03;;;;;;;;;;4995570;28;20030;-77
2022/05/30 06:01:43;;;;;;;5.63;2.10;;;;;;;;;;5012900;28;20030;-77
2022/05/30 06:04:10;;;;;;;2.28;1.67;;;;;;;;;;5013312;28;20084;-77
2022/05/30 06:06:36;;;;;;;2.78;1.70;;;;;;;;;;4995808;28;20467;-78
2022/05/30 06:09:04;;;;;;;3.63;1.90;;;;;;;;;;5013187;28;20501;-77
2022/05/30 06:11:31;;;;;;;7.15;1.80;;;;;;;;;;4995463;28;20033;-78
2022/05/30 06:13:57;;;;;;;2.90;1.70;;;;;;;;;;5013510;28;20108;-77
2022/05/30 06:16:28;;;;;;;2.92;1.70;;;;;;;;;;5014792;28;20494;-77
2022/05/30 06:18:56;;;;;;;3.70;1.70;;;;;;;;;;5017492;28;20075;-77
2022/05/30 06:21:24;;;;;;;2.85;1.65;;;;;;;;;;5016767;28;20029;-77
2022/05/30 06:23:51;;;;;;;5.38;1.70;;;;;;;;;;4999033;28;20022;-77
2022/05/30 06:26:16;;;;;;;3.92;1.83;;;;;;;;;;5016721;28;20030;-77
2022/05/30 06:28:42;;;;;;;2.50;2.00;;;;;;;;;;5017661;28;20032;-78
2022/05/30 06:31:11;;;;;;;4.25;2.78;;;;;;;;;;5017312;28;20032;-77
2022/05/30 06:33:37;;;;;;;7.15;3.38;;;;;;;;;;5016489;28;20036;-77
2022/05/30 06:36:08;;;;;;;11.75;4.03;;;;;;;;;;5016637;28;20614;-78
2022/05/30 06:38:34;;;;;;;6.38;4.20;;;;;;;;;;5016391;28;20028;-77
2022/05/30 06:41:13;;;;;;;5.68;4.07;;;;;;;;;;4998672;28;20026;-79
2022/05/30 06:43:39;;;;;;;6.43;4.72;;;;;;;;;;5016320;28;20065;-77
2022/05/30 06:46:05;;;;;;;7.00;4.72;;;;;;;;;;5016122;28;20045;-78
2022/05/30 06:48:30;;;;;;;6.15;4.38;;;;;;;;;;5016598;28;20453;-77
2022/05/30 06:50:55;;;;;;;5.65;4.18;;;;;;;;;;4998463;28;20030;-78
2022/05/30 06:53:21;;;;;;;6.95;4.75;;;;;;;;;;5016266;28;20030;-78
2022/05/30 06:55:50;;;;;;;6.43;4.53;;;;;;;;;;5016102;28;20108;-77
2022/05/30 06:58:18;;;;;;;9.93;4.85;;;;;;;;;;5016363;28;20053;-77
2022/05/30 07:00:45;;;;;;;7.35;4.45;;;;;;;;;;4998455;28;20073;-76
2022/05/30 07:03:12;;;;;;;9.65;5.00;;;;;;;;;;5015943;28;20025;-77
2022/05/30 07:05:39;;;;;;;8.52;4.97;;;;;;;;;;5015850;28;20025;-76
2022/05/30 07:08:05;;;;;;;7.00;5.35;;;;;;;;;;5015604;28;20033;-78
2022/05/30 07:10:31;;;;;;;7.68;5.10;;;;;;;;;;5015826;28;20033;-77
2022/05/30 07:12:58;;;;;;;5.93;4.90;;;;;;;;;;5015837;28;20029;-77
2022/05/30 07:15:27;;;;;;;8.75;5.07;;;;;;;;;;5015505;28;20033;-77
2022/05/30 07:17:53;;;;;;;7.22;4.40;;;;;;;;;;5015672;28;20510;-76
2022/05/30 07:20:18;;;;;;;6.38;4.50;;;;;;;;;;5015519;28;20036;-76
2022/05/30 07:22:44;;;;;;;5.90;4.07;;;;;;;;;;4998286;28;20482;-77
2022/05/30 07:25:09;;;;;;;6.20;4.13;;;;;;;;;;5015527;28;20034;-77
2022/05/30 07:27:34;;;;;;;6.28;4.10;;;;;;;;;;5015135;28;20282;-77
2022/05/30 07:30:00;;;;;;;5.20;3.80;;;;;;;;;;5015639;28;20029;-77
2022/05/30 07:32:25;;;;;;;5.55;3.78;;;;;;;;;;5015121;28;20038;-77
2022/05/30 07:34:51;;;;;;;6.90;3.85;;;;;;;;;;5015077;28;20101;-78
2022/05/30 07:37:16;;;;;;;6.60;4.00;;;;;;;;;;4997535;28;20479;-77
2022/05/30 07:39:41;;;;;;;6.25;4.18;;;;;;;;;;5014964;28;20404;-77
2022/05/30 07:42:10;;;;;;;6.03;3.90;;;;;;;;;;5014760;28;20037;-79
2022/05/30 07:44:35;;;;;;;6.47;3.70;;;;;;;;;;5015179;28;20255;-76
2022/05/30 07:47:01;;;;;;;6.32;3.78;;;;;;;;;;4997415;28;20032;-77
2022/05/30 07:49:26;;;;;;;6.07;3.60;;;;;;;;;;5015090;28;20386;-76
2022/05/30 07:51:51;;;;;;;5.57;3.88;;;;;;;;;;5015268;28;20475;-78
2022/05/30 07:54:17;;;;;;;7.18;3.40;;;;;;;;;;5014737;28;20483;-77
2022/05/30 07:56:42;;;;;;;7.13;3.63;;;;;;;;;;5015701;28;20045;-78
2022/05/30 07:59:08;;;;;;;4.40;3.40;;;;;;;;;;5014725;28;20263;-77
2022/05/30 08:01:34;;;;;;;5.90;3.30;;;;;;;;;;4996855;28;20037;-77
2022/05/30 08:04:00;;;;;;;5.10;3.42;;;;;;;;;;5014891;28;20033;-77
2022/05/30 08:06:28;;;;;;;4.60;3.28;;;;;;;;;;5014604;28;20502;-77
2022/05/30 08:08:54;;;;;;;6.65;3.38;;;;;;;;;;5014478;28;20542;-78
2022/05/30 08:11:21;;;;;;;5.15;3.28;;;;;;;;;;5014996;28;20399;-77
2022/05/30 08:13:47;;;;;;;4.70;3.10;;;;;;;;;;5014426;28;20022;-77
2022/05/30 08:16:14;;;;;;;5.60;3.30;;;;;;;;;;5014933;28;20538;-77
2022/05/30 08:18:40;;;;;;;4.85;3.58;;;;;;;;;;5014369;28;20072;-77
2022/05/30 08:21:05;;;;;;;6.55;3.47;;;;;;;;;;5014302;28;20026;-78
2022/05/30 08:23:31;;;;;;;5.47;3.47;;;;;;;;;;4996697;28;20029;-77
2022/05/30 08:25:57;;;;;;;6.35;3.88;;;;;;;;;;5014346;28;20102;-77
2022/05/30 08:28:22;;;;;;;5.03;3.15;;;;;;;;;;5014162;28;20053;-78
2022/05/30 08:30:48;;;;;;;5.90;3.47;;;;;;;;;;5014288;28;20034;-77
2022/05/30 08:33:16;;;;;;;4.40;3.20;;;;;;;;;;5014090;28;20038;-76
2022/05/30 08:35:45;;;;;;;6.00;3.25;;;;;;;;;;5014239;28;20497;-77
2022/05/30 08:38:10;;;;;;;4.65;3.30;;;;;;;;;;5014081;28;20479;-77
2022/05/30 08:43:30;;;;;;;3.70;2.72;;;;;;;;;;5014449;28;20516;-77
2022/05/30 08:46:22;;;;;;;3.15;2.80;;;;;;;;;;4996461;28;20127;-77
2022/05/30 08:49:13;;;;;;;6.22;2.50;;;;;;;;;;5014113;28;20045;-76
2022/05/30 08:52:12;;;;;;;2.88;2.38;;;;;;;;;;5014214;28;20524;-77
2022/05/30 08:54:54;;;;;;;2.65;1.70;;;;;;;;;;5014000;28;20026;-78
2022/05/30 08:57:58;;;;;;;3.10;1.70;;;;;;;;;;5013727;28;20030;-77
2022/05/30 09:00:52;;;;;;;3.08;1.80;;;;;;;;;;5009021;28;20499;-76
2022/05/30 09:03:41;;;;;;;2.60;1.85;;;;;;;;;;5014279;28;20053;-78
2022/05/30 09:06:19;;;;;;;3.42;2.10;;;;;;;;;;4996820;28;20106;-77
2022/05/30 09:09:14;;;;;;;2.47;1.90;;;;;;;;;;5014651;28;20109;-78
2022/05/30 09:11:57;;;;;;;2.85;1.90;;;;;;;;;;5004530;28;20034;-77
2022/05/30 09:14:32;;;;;;;3.00;2.30;;;;;;;;;;5014111;28;20402;-78
2022/05/30 09:17:03;;;;;;;4.32;2.10;;;;;;;;;;4995975;28;20029;-77
2022/05/30 09:19:28;;;;;;;2.50;1.80;;;;;;;;;;5013471;28;20394;-77
2022/05/30 09:22:01;;;;;;;4.45;2.22;;;;;;;;;;5013877;28;20108;-77
2022/05/30 09:24:28;;;;;;;4.03;2.58;;;;;;;;;;5014181;28;20030;-77
2022/05/30 09:26:54;;;;;;;6.05;2.40;;;;;;;;;;5014130;28;20069;-78
2022/05/30 09:29:29;;;;;;;3.10;2.20;;;;;;;;;;5013676;28;20499;-77
2022/05/30 09:32:21;;;;;;;6.32;2.63;;;;;;;;;;5013630;28;20036;-74
2022/05/30 09:34:49;;;;;;;4.40;2.35;;;;;;;;;;5013537;28;20497;-76
2022/05/30 09:37:26;;;;;;;5.47;2.72;;;;;;;;;;4996512;28;20394;-77
2022/05/30 09:39:51;;;;;;;3.67;2.53;;;;;;;;;;5013488;28;20022;-77
2022/05/30 09:42:26;;;;;;;3.80;2.50;;;;;;;;;;4995690;28;20022;-77
2022/05/30 09:44:59;;;;;;;3.10;2.15;;;;;;;;;;5013571;28;20021;-76
2022/05/30 09:47:24;;;;;;;4.60;2.17;;;;;;;;;;5013437;28;20029;-77
2022/05/30 09:49:52;;;;;;;3.97;1.83;;;;;;;;;;4995759;28;20084;-77
2022/05/30 09:52:39;;;;;;;2.83;2.10;;;;;;;;;;4999946;28;20021;-77
2022/05/30 09:55:35;;;;;;;3.85;1.80;;;;;;;;;;5018650;28;20025;-78
2022/05/30 09:58:02;;;;;;;2.00;1.60;;;;;;;;;;5017609;28;20022;-77
2022/05/30 10:00:28;;;;;;;3.47;1.80;;;;;;;;;;5017277;28;20061;-77
2022/05/30 10:03:04;;;;;;;4.22;1.60;;;;;;;;;;5018307;28;20556;-78
2022/05/30 10:05:32;;;;;;;2.20;1.60;;;;;;;;;;5000315;28;20053;-77
2022/05/30 10:08:04;;;;;;;2.10;1.67;;;;;;;;;;5017359;28;20025;-77
2022/05/30 10:10:36;;;;;;;4.82;1.50;;;;;;;;;;5017269;28;20030;-77
2022/05/30 10:13:05;;;;;;;2.33;1.50;;;;;;;;;;5018081;28;20109;-78
2022/05/30 10:15:33;;;;;;;2.88;1.55;;;;;;;;;;5017669;28;20049;-78
2022/05/30 10:18:13;;;;;;;2.28;2.08;;;;;;;;;;5017512;28;20092;-78
2022/05/30 10:20:45;;;;;;;2.65;1.77;;;;;;;;;;4999542;28;20045;-76
2022/05/30 10:29:24;;;;;;;2.20;1.55;;;;;;;;;;5017910;28;20460;-77
2022/05/30 10:32:04;;;;;;;2.55;1.60;;;;;;;;;;4999342;28;20033;-77
2022/05/30 10:34:49;;;;;;;3.60;1.52;;;;;;;;;;5016825;28;20098;-77
2022/05/30 10:37:44;;;;;;;4.68;1.90;;;;;;;;;;5017290;28;20069;-76
2022/05/30 10:40:25;;;;;;;;;;;;;;;;;;4992365;28;20034;-78
2022/05/30 10:43:13;;;;;;;2.10;1.60;;;;;;;;;;5016896;28;19972;-77
2022/05/30 10:45:51;;;;;;;3.55;1.80;;;;;;;;;;5016770;28;20028;-78
2022/05/30 10:48:28;;;;;;;4.43;1.60;;;;;;;;;;5016931;28;20037;-77
2022/05/30 10:51:02;;;;;;;3.15;1.65;;;;;;;;;;4999615;28;20438;-78
2022/05/30 10:53:30;;;;;;;1.77;1.50;;;;;;;;;;5017148;28;20049;-77
2022/05/30 10:56:01;;;;;;;1.80;1.42;;;;;;;;;;5016546;28;20025;-78
2022/05/30 10:58:41;;;;;;;3.05;1.35;;;;;;;;;;5016904;28;20026;-77
2022/05/30 11:01:12;;;;;;;2.13;1.27;;;;;;;;;;5016674;28;20117;-78
2022/05/30 11:03:52;;;;;;;6.63;2.22;;;;;;;;;;5015493;28;20026;-76
2022/05/30 11:06:23;;;;;;;1.67;1.45;;;;;;;;;;5016351;28;20018;-78
2022/05/30 11:08:58;;;;;;;1.50;1.40;;;;;;;;;;5016211;28;20033;-77
2022/05/30 11:11:33;;;;;;;2.72;1.45;;;;;;;;;;5015607;28;20076;-75
2022/05/30 11:14:15;;;;;;;2.40;1.63;;;;;;;;;;5015924;28;20113;-76
2022/05/30 11:16:49;;;;;;;2.00;1.40;;;;;;;;;;5016745;28;20104;-78
2022/05/30 11:19:26;;;;;;;1.73;1.40;;;;;;;;;;5016103;28;20025;-77
2022/05/30 11:22:18;;;;;;;2.45;1.50;;;;;;;;;;5016365;28;20057;-76
2022/05/30 11:24:50;;;;;;;1.30;1.20;;;;;;;;;;4998102;28;20068;-78
2022/05/30 11:27:33;;;;;;;1.50;1.38;;;;;;;;;;4998638;28;20022;-77
2022/05/30 11:30:14;;;;;;;1.40;1.00;;;;;;;;;;5015722;28;20052;-77
2022/05/30 11:33:05;;;;;;;5.95;1.13;;;;;;;;;;5015231;28;20410;-77
2022/05/30 11:35:43;;;;;;;4.43;1.20;;;;;;;;;;5015662;28;20505;-76
2022/05/30 11:38:41;;;;;;;3.13;1.35;;;;;;;;;;5015487;28;20022;-78
2022/05/30 11:41:29;;;;;;;1.52;1.13;;;;;;;;;;4997480;28;20124;-77
2022/05/30 11:44:30;;;;;;;2.13;1.30;;;;;;;;;;4997347;28;20483;-77
2022/05/30 11:47:15;;;;;;;1.58;1.33;;;;;;;;;;5015831;28;20528;-77
2022/05/30 11:49:58;;;;;;;1.83;1.27;;;;;;;;;;5015292;28;20073;-77
2022/05/30 11:53:08;;;;;;;1.95;1.33;;;;;;;;;;5014936;28;20030;-78
2022/05/30 11:55:49;;;;;;;3.25;1.40;;;;;;;;;;4990315;28;20084;-77
2022/05/30 11:58:41;;;;;;;4.13;1.60;;;;;;;;;;5015124;28;20060;-77
2022/05/30 12:01:08;;;;;;;2.83;1.42;;;;;;;;;;5014817;28;20034;-76
2022/05/30 12:03:54;;;;;;;1.50;1.27;;;;;;;;;;5014748;28;20049;-78
2022/05/30 12:06:37;;;;;;;2.67;1.30;;;;;;;;;;5015032;28;20103;-77
2022/05/30 12:09:23;;;;;;;4.38;1.48;;;;;;;;;;4996915;28;20487;-77
2022/05/30 12:12:21;;;;;;;3.13;1.08;;;;;;;;;;4996942;28;20376;-78
2022/05/30 12:15:20;;;;;;;1.50;1.30;;;;;;;;;;5014775;28;20033;-78
2022/05/30 12:24:27;;;;;;;1.60;1.40;;;;;;;;;;5014972;28;20161;-78
2022/05/30 12:26:57;;;;;;;2.05;1.40;;;;;;;;;;4996991;28;20036;-78
2022/05/30 12:29:43;;;;;;;1.98;1.33;;;;;;;;;;5014585;28;20479;-78
2022/05/30 12:32:21;;;;;;;2.22;1.38;;;;;;;;;;4996896;28;20108;-77
2022/05/30 12:35:02;;;;;;;2.80;1.70;;;;;;;;;;5014431;28;20022;-77
2022/05/30 12:37:43;;;;;;;3.08;1.40;;;;;;;;;;5014050;28;20387;-79
2022/05/30 12:40:14;;;;;;;4.00;1.40;;;;;;;;;;5014264;28;20022;-78
2022/05/30 12:42:43;;;;;;;1.77;1.40;;;;;;;;;;5014283;28;20566;-78
2022/05/30 12:45:35;;;;;;;2.28;1.40;;;;;;;;;;5014457;28;20028;-78
2022/05/30 12:48:11;;;;;;;2.15;1.40;;;;;;;;;;5014931;28;20029;-79
2022/05/30 12:50:57;;;;;;;1.40;1.30;;;;;;;;;;4996523;28;20073;-77
2022/05/30 12:53:25;;;;;;;2.25;1.40;;;;;;;;;;5014120;28;20026;-79
2022/05/30 12:55:52;;;;;;;2.45;1.42;;;;;;;;;;4996415;28;20036;-77
2022/05/30 12:58:36;;;;;;;2.40;1.30;;;;;;;;;;5014083;28;20470;-77
2022/05/30 13:01:23;;;;;;;1.40;1.10;;;;;;;;;;5014211;28;20113;-79
2022/05/30 13:04:05;;;;;;;1.20;1.10;;;;;;;;;;5014563;28;20152;-77
2022/05/30 13:06:31;;;;;;;6.57;1.30;;;;;;;;;;5014391;28;20037;-77
2022/05/30 13:09:01;;;;;;;1.50;1.15;;;;;;;;;;5013650;28;20479;-78
2022/05/30 13:11:32;;;;;;;2.70;1.40;;;;;;;;;;5013745;28;20060;-79
2022/05/30 13:14:10;;;;;;;2.63;1.20;;;;;;;;;;4996795;28;20025;-78
2022/05/30 13:16:43;;;;;;;2.08;1.30;;;;;;;;;;4996338;28;20029;-78
2022/05/30 13:19:11;;;;;;;4.15;2.00;;;;;;;;;;5031517;28;20033;-75
2022/05/30 13:21:47;;;;;;;2.67;1.30;;;;;;;;;;5032358;28;20056;-77
2022/05/30 13:24:34;;;;;;;3.92;1.17;;;;;;;;;;5030754;28;20018;-76
2022/05/30 13:27:00;;;;;;;2.42;1.20;;;;;;;;;;5032588;28;20077;-76
2022/05/30 13:29:34;;;;;;;2.42;0.90;;;;;;;;;;5033652;28;20032;-76
2022/05/30 13:32:00;;;;;;;;;;;;;;;;;;5034215;28;20018;-76
2022/05/30 13:34:29;;;;;;;2.47;1.10;;;;;;;;;;5032495;28;19952;-75
2022/05/30 13:36:56;;;;;;;1.85;1.08;;;;;;;;;;5033349;28;20032;-77
2022/05/30 13:39:21;;;;;;;3.42;1.10;;;;;;;;;;5030324;28;20048;-77
2022/05/30 13:41:47;;;;;;;2.08;1.00;;;;;;;;;;5019775;28;20025;-77
2022/05/30 13:44:16;;;;;;;4.30;1.10;;;;;;;;;;5016793;28;20049;-77
2022/05/30 13:46:48;;;;;;;2.05;1.00;;;;;;;;;;5027054;28;20030;-77
2022/05/30 13:49:35;;;;;;;1.42;1.08;;;;;;;;;;5017543;28;20029;-77
2022/05/30 13:52:01;;;;;;;1.60;1.05;;;;;;;;;;5013717;28;20022;-76
2022/05/30 13:54:28;;;;;;;2.53;1.00;;;;;;;;;;5013523;28;20026;-78
2022/05/30 13:56:54;;;;;;;2.55;1.10;;;;;;;;;;5014184;28;20034;-77
2022/05/30 13:59:35;;;;;;;2.30;1.00;;;;;;;;;;4996069;28;20506;-77
2022/05/30 14:02:06;;;;;;;2.72;1.38;;;;;;;;;;5012997;28;20112;-77
2022/05/30 14:04:45;;;;;;;2.67;1.17;;;;;;;;;;4996018;28;20030;-78
2022/05/30 14:07:22;;;;;;;3.50;1.20;;;;;;;;;;5013373;28;20022;-78
2022/05/30 14:09:50;;;;;;;1.70;1.08;;;;;;;;;;5013074;28;20440;-77
2022/05/30 14:12:20;;;;;;;1.55;1.05;;;;;;;;;;5012793;28;20095;-77
2022/05/30 14:14:47;;;;;;;1.70;1.20;;;;;;;;;;4995394;28;20025;-77
2022/05/30 14:17:24;;;;;;;2.20;1.10;;;;;;;;;;5013213;28;20032;-78
2022/05/30 14:20:14;;;;;;;3.55;1.17;;;;;;;;;;5013114;28;20030;-76
2022/05/30 14:22:51;;;;;;;2.65;0.90;;;;;;;;;;4995344;28;20029;-78
2022/05/30 14:25:28;;;;;;;2.08;1.08;;;;;;;;;;5013011;28;20022;-76
2022/05/30 14:27:54;;;;;;;1.90;1.00;;;;;;;;;;5013032;28;20076;-78
2022/05/30 14:30:25;;;;;;;1.15;0.88;;;;;;;;;;5013565;28;20030;-77
2022/05/30 14:33:06;;;;;;;1.48;0.98;;;;;;;;;;5012833;28;20499;-77
2022/05/30 14:35:31;;;;;;;1.15;1.00;;;;;;;;;;5013313;28;20040;-77
2022/05/30 14:37:56;;;;;;;0.98;0.98;;;;;;;;;;5014630;28;20030;-77
2022/05/30 14:40:36;;;;;;;1.07;0.80;;;;;;;;;;5016387;28;20104;-76
2022/05/30 14:43:22;;;;;;;1.80;1.10;;;;;;;;;;4998761;28;20033;-77
2022/05/30 14:46:04;;;;;;;2.65;1.00;;;;;;;;;;5016384;28;20084;-77
2022/05/30 14:48:31;;;;;;;1.33;1.00;;;;;;;;;;4998582;28;20175;-77
2022/05/30 14:51:03;;;;;;;2.30;1.00;;;;;;;;;;5016532;28;20034;-77
2022/05/30 14:53:32;;;;;;;0.90;0.80;;;;;;;;;;4998640;28;20117;-76
2022/05/30 14:56:01;;;;;;;1.77;0.93;;;;;;;;;;5015926;28;20026;-77
2022/05/30 14:58:45;;;;;;;2.90;1.05;;;;;;;;;;5016621;28;20068;-77
2022/05/30 15:01:11;;;;;;;1.30;0.77;;;;;;;;;;4998218;28;20105;-77
2022/05/30 15:06:25;;;;;;;1.08;0.80;;;;;;;;;;5016546;28;20088;-77
2022/05/30 15:08:53;;;;;;;2.80;1.02;;;;;;;;;;5016029;28;20076;-77
2022/05/30 15:11:22;;;;;;;1.33;0.90;;;;;;;;;;5015864;28;20030;-77
2022/05/30 15:13:49;;;;;;;2.88;1.55;;;;;;;;;;4998112;28;20026;-78
2022/05/30 15:16:15;;;;;;;1.73;0.88;;;;;;;;;;4998631;28;20029;-78
2022/05/30 15:18:42;;;;;;;1.15;0.73;;;;;;;;;;5015641;28;20022;-77
2022/05/30 15:21:09;;;;;;;2.78;0.90;;;;;;;;;;4997813;28;20025;-77
2022/05/30 15:23:34;;;;;;;1.73;0.80;;;;;;;;;;5015609;28;20034;-77
2022/05/30 15:25:59;;;;;;;3.70;0.90;;;;;;;;;;5015478;28;20034;-77
2022/05/30 15:28:24;;;;;;;2.35;0.90;;;;;;;;;;4997834;28;20021;-76
2022/05/30 15:30:50;;;;;;;1.27;0.90;;;;;;;;;;5015168;28;20024;-78
2022/05/30 15:33:16;;;;;;;1.00;0.90;;;;;;;;;;5015401;28;20033;-78